createdAt,value
2023-04-15T00:01:25.767Z,45.43
2023-04-15T00:06:29.232Z,46.21
2023-04-15T00:11:34.141Z,46.52
2023-04-15T00:16:37.588Z,46.51
2023-04-15T00:21:41.285Z,45.78
2023-04-15T00:26:46.058Z,45.61
2023-04-15T00:31:49.615Z,46.07
2023-04-15T00:36:53.466Z,46.31
2023-04-15T00:41:58.871Z,47.34
2023-04-15T00:47:02.766Z,46.02
2023-04-15T00:52:06.379Z,45.98
2023-04-15T00:57:11.154Z,48.03
2023-04-15T01:02:14.702Z,46.07
2023-04-15T01:07:18.800Z,45.94
2023-04-15T01:12:23.997Z,46.73
2023-04-15T01:17:27.473Z,46.87
2023-04-15T01:22:31.441Z,46.33
2023-04-15T01:27:40.873Z,47.81
2023-04-15T01:32:44.408Z,47.91
2023-04-15T01:38:08.712Z,47.11
2023-04-15T01:43:13.464Z,49.94
2023-04-15T01:48:20.685Z,47.09
2023-04-15T01:53:25.811Z,46.11
2023-04-15T01:58:31.978Z,48.56
2023-04-15T02:03:37.325Z,47.69
2023-04-15T02:08:42.429Z,47.84
2023-04-15T02:13:48.566Z,48.03
2023-04-15T02:18:53.309Z,46.62
2023-04-15T02:23:57.994Z,48.51
2023-04-15T02:29:04.393Z,48.46
2023-04-15T02:34:09.241Z,48.41
2023-04-15T02:39:16.683Z,47.54
2023-04-15T02:44:24.820Z,47.83
2023-04-15T02:49:32.691Z,48.08
2023-04-15T02:54:38.608Z,49.97
2023-04-15T02:59:44.773Z,51.58
2023-04-15T03:04:49.839Z,49.89
2023-04-15T03:09:54.606Z,49.83
2023-04-15T03:15:02.063Z,50.51
2023-04-15T03:20:13.387Z,48.58
2023-04-15T03:25:18.422Z,48.75
2023-04-15T03:30:24.615Z,50.66
2023-04-15T03:35:29.429Z,50.48
2023-04-15T03:40:34.398Z,49.47
2023-04-15T03:45:40.553Z,49.58
2023-04-15T03:50:45.211Z,49.14
2023-04-15T03:55:50.123Z,49.45
2023-04-15T04:00:56.276Z,49.77
2023-04-15T04:06:00.964Z,50.91
2023-04-15T04:11:06.500Z,51.78
2023-04-15T04:16:12.656Z,51.73
2023-04-15T04:21:17.630Z,50.93
2023-04-15T04:26:22.718Z,52.94
2023-04-15T04:31:29.091Z,54.85
2023-04-15T04:36:33.896Z,51.34
2023-04-15T04:41:38.652Z,51.97
2023-04-15T04:46:44.702Z,53.47
2023-04-15T04:51:49.427Z,54.46
2023-04-15T04:56:54.080Z,54.81
2023-04-15T05:02:00.251Z,56.23
2023-04-15T05:07:05.135Z,57.68
2023-04-15T05:12:14.761Z,53.27
2023-04-15T05:17:20.869Z,55.08
2023-04-15T05:22:25.643Z,55.29
2023-04-15T05:27:30.747Z,54.65
2023-04-15T05:32:36.795Z,55.15
2023-04-15T05:37:41.675Z,54.36
2023-04-15T05:42:46.528Z,55.70
2023-04-15T05:47:54.378Z,54.70
2023-04-15T05:52:59.119Z,56.10
2023-04-15T05:58:04.359Z,54.79
2023-04-15T06:03:11.645Z,54.03
2023-04-15T06:08:16.476Z,56.33
2023-04-15T06:13:21.211Z,57.65
2023-04-15T06:18:27.256Z,56.50
2023-04-15T06:23:31.983Z,55.16
2023-04-15T06:28:36.631Z,57.01
2023-04-15T06:33:42.656Z,55.96
2023-04-15T06:38:47.370Z,53.70
2023-04-15T06:43:52.108Z,53.78
2023-04-15T06:48:58.149Z,55.09
2023-04-15T06:54:05.793Z,53.70
2023-04-15T06:59:10.686Z,58.77
2023-04-15T07:04:16.760Z,56.18
2023-04-15T07:09:21.718Z,54.51
2023-04-15T07:14:26.552Z,55.21
2023-04-15T07:19:32.595Z,56.72
2023-04-15T07:24:37.262Z,55.55
2023-04-15T07:29:42.139Z,54.80
2023-04-15T07:34:48.124Z,53.40
2023-04-15T07:39:52.888Z,52.33
2023-04-15T07:44:58.068Z,55.52
2023-04-15T07:50:04.260Z,56.29
2023-04-15T07:55:09.882Z,59.16
2023-04-15T08:00:16.214Z,53.21
2023-04-15T08:05:22.523Z,53.03
2023-04-15T08:10:27.407Z,55.39
2023-04-15T08:15:32.941Z,57.40
2023-04-15T08:20:39.108Z,56.70
2023-04-15T08:25:43.781Z,56.09
2023-04-15T08:30:49.019Z,59.91
2023-04-15T08:35:55.102Z,55.03
2023-04-15T08:41:01.543Z,56.34
2023-04-15T08:46:06.577Z,53.75
2023-04-15T08:51:15.995Z,54.84
2023-04-15T08:56:22.690Z,56.83
2023-04-15T09:01:28.003Z,56.71
2023-04-15T09:06:34.082Z,59.39
2023-04-15T09:11:39.076Z,55.99
2023-04-15T09:17:00.896Z,57.99
2023-04-15T09:22:07.546Z,56.13
2023-04-15T09:27:12.254Z,55.61
2023-04-15T09:32:17.506Z,54.39
2023-04-15T09:37:36.470Z,54.77
2023-04-15T09:42:56.019Z,56.77
2023-04-15T09:48:01.616Z,53.88
2023-04-15T09:53:10.526Z,52.62
2023-04-15T09:58:23.377Z,52.65
2023-04-15T10:03:30.080Z,53.87
2023-04-15T10:08:36.371Z,56.60
2023-04-15T10:13:41.223Z,54.51
2023-04-15T10:18:47.360Z,53.34
2023-04-15T10:23:53.525Z,55.08
2023-04-15T10:29:00.136Z,54.33
2023-04-15T10:34:06.504Z,53.67
2023-04-15T10:39:44.306Z,54.47
2023-04-15T10:44:51.683Z,58.47
2023-04-15T10:49:59.383Z,56.14
2023-04-15T10:55:15.624Z,55.58
2023-04-15T11:00:30.745Z,56.09
2023-04-15T11:05:51.433Z,55.37
2023-04-15T11:10:57.514Z,58.37
2023-04-15T11:16:03.459Z,61.12
2023-04-15T11:21:09.570Z,60.87
2023-04-15T11:26:15.800Z,55.72
2023-04-15T11:31:21.044Z,55.32
2023-04-15T11:36:28.171Z,55.96
2023-04-15T11:41:34.324Z,57.83
2023-04-15T11:46:39.092Z,59.51
2023-04-15T11:51:43.905Z,58.79
2023-04-15T11:56:53.566Z,57.05
2023-04-15T12:01:57.206Z,56.26
2023-04-15T12:07:06.818Z,57.42
2023-04-15T12:12:12.381Z,57.85
2023-04-15T12:17:16.732Z,54.97
2023-04-15T12:22:22.169Z,54.54
2023-04-15T12:27:29.742Z,53.43
2023-04-15T12:32:36.385Z,56.06
2023-04-15T12:37:39.803Z,52.80
2023-04-15T12:42:44.664Z,54.07
2023-04-15T12:47:50.381Z,53.33
2023-04-15T12:52:54.285Z,56.27
2023-04-15T12:57:59.121Z,57.67
2023-04-15T13:03:03.530Z,52.50
2023-04-15T13:08:09.906Z,55.78
2023-04-15T13:13:14.732Z,54.24
2023-04-15T13:18:18.176Z,52.94
2023-04-15T13:23:21.678Z,52.00
2023-04-15T13:28:34.207Z,50.85
2023-04-15T13:33:49.208Z,51.90
2023-04-15T13:38:52.750Z,52.79
2023-04-15T13:43:58.406Z,50.21
2023-04-15T13:49:01.971Z,50.44
2023-04-15T13:54:05.822Z,48.78
2023-04-15T13:59:10.959Z,49.12
2023-04-15T14:04:14.905Z,47.47
2023-04-15T14:09:18.567Z,45.63
2023-04-15T14:14:23.494Z,47.19
2023-04-15T14:19:27.794Z,46.22
2023-04-15T14:24:31.249Z,45.23
2023-04-15T14:29:36.086Z,44.68
2023-04-15T14:34:39.492Z,44.70
2023-04-15T14:39:42.905Z,45.17
2023-04-15T14:44:47.748Z,44.38
2023-04-15T14:49:51.415Z,44.07
2023-04-15T14:54:54.995Z,45.08
2023-04-15T14:59:59.849Z,44.03
2023-04-15T15:05:03.889Z,44.27
2023-04-15T15:10:08.217Z,42.98
2023-04-15T15:15:28.245Z,43.48
2023-04-15T15:20:32.935Z,44.81
2023-04-15T15:25:36.598Z,45.09
2023-04-15T15:30:41.551Z,44.35
2023-04-15T15:35:45.474Z,43.49
2023-04-15T15:40:48.854Z,43.55
2023-04-15T15:45:55.562Z,44.26
2023-04-15T15:50:59.059Z,43.75
2023-04-15T15:56:03.787Z,43.66
2023-04-15T16:01:08.663Z,44.61
2023-04-15T16:06:12.051Z,45.09
2023-04-15T16:11:16.016Z,44.02
2023-04-15T16:16:20.849Z,47.71
2023-04-15T16:21:24.837Z,46.56
2023-04-15T16:26:28.308Z,44.29
2023-04-15T16:31:34.466Z,46.99
2023-04-15T16:36:40.286Z,46.42
2023-04-15T16:41:43.738Z,45.77
2023-04-15T16:46:48.525Z,45.72
2023-04-15T16:51:53.499Z,50.78
2023-04-15T16:56:58.545Z,49.76
2023-04-15T17:02:03.386Z,48.41
2023-04-15T17:07:08.715Z,45.47
2023-04-15T17:12:12.166Z,44.92
2023-04-15T17:17:17.134Z,45.98
2023-04-15T17:22:21.012Z,44.78
2023-04-15T17:27:26.424Z,45.07
2023-04-15T17:32:34.466Z,44.63
2023-04-15T17:37:58.517Z,45.20
2023-04-15T17:43:22.054Z,44.65
2023-04-15T17:48:47.564Z,44.43
2023-04-15T17:54:10.999Z,44.37
2023-04-15T17:59:34.653Z,45.12
2023-04-15T18:04:59.605Z,45.41
2023-04-15T18:10:23.962Z,46.18
2023-04-15T18:15:48.596Z,45.57
2023-04-15T18:21:13.868Z,45.50
2023-04-15T18:26:17.510Z,44.22
2023-04-15T18:31:21.051Z,44.25
2023-04-15T18:36:26.612Z,44.09
2023-04-15T18:41:29.981Z,43.79
2023-04-15T18:46:33.418Z,43.78
2023-04-15T18:51:38.323Z,46.14
2023-04-15T18:56:41.852Z,46.67
2023-04-15T19:01:45.420Z,45.52
2023-04-15T19:06:50.243Z,46.20
2023-04-15T19:11:53.644Z,45.59
2023-04-15T19:16:57.094Z,45.66
2023-04-15T19:22:03.235Z,45.01
2023-04-15T19:27:06.724Z,44.93
2023-04-15T19:32:10.237Z,46.85
2023-04-15T19:37:15.777Z,47.78
2023-04-15T19:42:19.143Z,46.64
2023-04-15T19:47:23.751Z,47.55
2023-04-15T19:52:28.487Z,47.11
2023-04-15T19:57:32.337Z,49.40
2023-04-15T20:02:36.100Z,47.95
2023-04-15T20:07:42.412Z,46.35
2023-04-15T20:12:51.690Z,46.79
2023-04-15T20:17:56.775Z,46.65
2023-04-15T20:23:04.207Z,46.31
2023-04-15T20:28:07.648Z,47.58
2023-04-15T20:33:11.541Z,46.27
2023-04-15T20:38:17.432Z,46.45
2023-04-15T20:43:21.415Z,45.47
2023-04-15T20:48:25.299Z,46.28
2023-04-15T20:53:30.012Z,46.35
2023-04-15T20:58:33.431Z,46.73
2023-04-15T21:03:37.194Z,45.62
2023-04-15T21:08:42.172Z,45.04
2023-04-15T21:13:46.336Z,45.92
2023-04-15T21:18:49.726Z,48.22
2023-04-15T21:23:54.450Z,46.21
2023-04-15T21:28:57.831Z,47.42
2023-04-15T21:34:01.266Z,46.95
2023-04-15T21:39:06.787Z,47.14
2023-04-15T21:44:12.075Z,47.11
2023-04-15T21:49:16.756Z,46.82
2023-04-15T21:54:21.516Z,47.11
2023-04-15T21:59:24.982Z,47.89
2023-04-15T22:04:28.513Z,47.19
2023-04-15T22:09:33.499Z,50.02
2023-04-15T22:14:37.017Z,46.57
2023-04-15T22:19:40.992Z,47.60
2023-04-15T22:24:45.767Z,46.82
2023-04-15T22:29:49.177Z,46.74
2023-04-15T22:34:52.635Z,49.56
2023-04-15T22:39:57.582Z,48.83
2023-04-15T22:45:00.980Z,48.02
2023-04-15T22:50:04.688Z,47.95
2023-04-15T22:55:10.327Z,48.18
2023-04-15T23:00:14.412Z,48.00
2023-04-15T23:05:18.140Z,48.82
2023-04-15T23:10:23.176Z,48.51
2023-04-15T23:15:26.636Z,50.52
2023-04-15T23:20:30.040Z,50.16
2023-04-15T23:25:34.824Z,48.96
2023-04-15T23:30:38.566Z,48.22
2023-04-15T23:35:42.978Z,51.50
2023-04-15T23:40:47.800Z,52.40
2023-04-15T23:45:51.212Z,51.06
2023-04-15T23:50:54.648Z,50.80
2023-04-15T23:55:59.346Z,48.72
